sensor_id;sensor_type;location;lat;lon;timestamp;P1;durP1;ratioP1;P2;durP2;ratioP2
16640;SDS011;8434;47.990;7.880;2024-03-07T00:01:10;6.73;;;4.30;;
16640;SDS011;8434;47.990;7.880;2024-03-07T00:03:55;5.40;;;4.60;;
16640;SDS011;8434;47.990;7.880;2024-03-07T00:06:40;4.53;;;3.80;;
16640;SDS011;8434;47.990;7.880;2024-03-07T00:09:26;5.33;;;4.13;;
16640;SDS011;8434;47.990;7.880;2024-03-07T00:12:11;4.90;;;3.97;;
16640;SDS011;8434;47.990;7.880;2024-03-07T00:14:58;4.47;;;3.10;;
16640;SDS011;8434;47.990;7.880;2024-03-07T00:17:44;4.20;;;3.07;;
16640;SDS011;8434;47.990;7.880;2024-03-07T00:20:32;3.40;;;2.80;;
16640;SDS011;8434;47.990;7.880;2024-03-07T00:23:18;5.93;;;3.53;;
16640;SDS011;8434;47.990;7.880;2024-03-07T00:26:03;3.90;;;3.30;;
16640;SDS011;8434;47.990;7.880;2024-03-07T00:28:53;4.77;;;3.53;;
16640;SDS011;8434;47.990;7.880;2024-03-07T00:31:40;5.90;;;4.33;;
16640;SDS011;8434;47.990;7.880;2024-03-07T00:34:26;6.03;;;3.50;;
16640;SDS011;8434;47.990;7.880;2024-03-07T00:37:11;4.93;;;3.60;;
16640;SDS011;8434;47.990;7.880;2024-03-07T00:39:57;4.00;;;3.50;;
16640;SDS011;8434;47.990;7.880;2024-03-07T00:42:42;5.10;;;3.90;;
16640;SDS011;8434;47.990;7.880;2024-03-07T00:45:28;4.77;;;3.60;;
16640;SDS011;8434;47.990;7.880;2024-03-07T00:48:14;5.23;;;3.57;;
16640;SDS011;8434;47.990;7.880;2024-03-07T00:51:00;5.13;;;3.67;;
16640;SDS011;8434;47.990;7.880;2024-03-07T00:53:48;4.20;;;3.63;;
16640;SDS011;8434;47.990;7.880;2024-03-07T00:56:39;4.80;;;3.60;;
16640;SDS011;8434;47.990;7.880;2024-03-07T00:59:24;5.67;;;3.27;;
16640;SDS011;8434;47.990;7.880;2024-03-07T01:02:09;5.80;;;3.60;;
16640;SDS011;8434;47.990;7.880;2024-03-07T01:04:56;4.13;;;3.07;;
16640;SDS011;8434;47.990;7.880;2024-03-07T01:07:42;4.43;;;2.57;;
16640;SDS011;8434;47.990;7.880;2024-03-07T01:10:28;2.83;;;2.47;;
16640;SDS011;8434;47.990;7.880;2024-03-07T01:13:13;3.30;;;2.73;;
16640;SDS011;8434;47.990;7.880;2024-03-07T01:16:03;4.10;;;3.17;;
16640;SDS011;8434;47.990;7.880;2024-03-07T01:18:53;4.23;;;3.50;;
16640;SDS011;8434;47.990;7.880;2024-03-07T01:21:40;4.40;;;3.40;;
16640;SDS011;8434;47.990;7.880;2024-03-07T01:24:25;3.77;;;3.20;;
16640;SDS011;8434;47.990;7.880;2024-03-07T01:27:11;3.77;;;3.13;;
16640;SDS011;8434;47.990;7.880;2024-03-07T01:29:57;3.67;;;3.00;;
16640;SDS011;8434;47.990;7.880;2024-03-07T01:32:42;3.73;;;2.93;;
16640;SDS011;8434;47.990;7.880;2024-03-07T01:35:28;3.87;;;2.90;;
16640;SDS011;8434;47.990;7.880;2024-03-07T01:38:15;3.73;;;2.33;;
16640;SDS011;8434;47.990;7.880;2024-03-07T01:41:00;3.97;;;3.03;;
16640;SDS011;8434;47.990;7.880;2024-03-07T01:43:45;3.37;;;2.60;;
16640;SDS011;8434;47.990;7.880;2024-03-07T01:46:31;3.17;;;2.77;;
16640;SDS011;8434;47.990;7.880;2024-03-07T01:49:16;4.03;;;3.20;;
16640;SDS011;8434;47.990;7.880;2024-03-07T01:52:02;3.73;;;2.97;;
16640;SDS011;8434;47.990;7.880;2024-03-07T01:54:50;3.20;;;2.57;;
16640;SDS011;8434;47.990;7.880;2024-03-07T01:57:36;5.00;;;3.93;;
16640;SDS011;8434;47.990;7.880;2024-03-07T02:00:21;4.77;;;3.17;;
16640;SDS011;8434;47.990;7.880;2024-03-07T02:03:07;5.17;;;3.60;;
16640;SDS011;8434;47.990;7.880;2024-03-07T02:05:52;4.80;;;3.80;;
16640;SDS011;8434;47.990;7.880;2024-03-07T02:08:38;5.30;;;4.23;;
16640;SDS011;8434;47.990;7.880;2024-03-07T02:11:25;4.90;;;3.77;;
16640;SDS011;8434;47.990;7.880;2024-03-07T02:14:10;4.63;;;3.80;;
16640;SDS011;8434;47.990;7.880;2024-03-07T02:16:55;5.50;;;3.50;;
16640;SDS011;8434;47.990;7.880;2024-03-07T02:19:41;7.00;;;4.10;;
16640;SDS011;8434;47.990;7.880;2024-03-07T02:22:28;4.77;;;3.67;;
16640;SDS011;8434;47.990;7.880;2024-03-07T02:25:13;5.57;;;4.03;;
16640;SDS011;8434;47.990;7.880;2024-03-07T02:27:59;4.83;;;3.47;;
16640;SDS011;8434;47.990;7.880;2024-03-07T02:30:45;6.30;;;3.80;;
16640;SDS011;8434;47.990;7.880;2024-03-07T02:33:31;4.87;;;3.57;;
16640;SDS011;8434;47.990;7.880;2024-03-07T02:36:17;4.67;;;3.60;;
16640;SDS011;8434;47.990;7.880;2024-03-07T02:39:04;5.87;;;4.30;;
16640;SDS011;8434;47.990;7.880;2024-03-07T02:41:50;4.57;;;3.83;;
16640;SDS011;8434;47.990;7.880;2024-03-07T02:44:35;5.90;;;3.97;;
16640;SDS011;8434;47.990;7.880;2024-03-07T02:47:22;5.23;;;3.77;;
16640;SDS011;8434;47.990;7.880;2024-03-07T02:50:08;4.03;;;2.87;;
16640;SDS011;8434;47.990;7.880;2024-03-07T02:52:55;4.80;;;3.17;;
16640;SDS011;8434;47.990;7.880;2024-03-07T02:55:41;4.63;;;3.43;;
16640;SDS011;8434;47.990;7.880;2024-03-07T02:58:27;3.60;;;3.10;;
16640;SDS011;8434;47.990;7.880;2024-03-07T03:01:12;7.47;;;3.40;;
16640;SDS011;8434;47.990;7.880;2024-03-07T03:03:57;3.77;;;2.57;;
16640;SDS011;8434;47.990;7.880;2024-03-07T03:06:43;3.33;;;2.30;;
16640;SDS011;8434;47.990;7.880;2024-03-07T03:09:29;6.20;;;2.60;;
16640;SDS011;8434;47.990;7.880;2024-03-07T03:12:15;4.97;;;2.83;;
16640;SDS011;8434;47.990;7.880;2024-03-07T03:15:01;5.23;;;3.43;;
16640;SDS011;8434;47.990;7.880;2024-03-07T03:17:49;3.53;;;2.80;;
16640;SDS011;8434;47.990;7.880;2024-03-07T03:20:34;3.37;;;2.30;;
16640;SDS011;8434;47.990;7.880;2024-03-07T03:23:22;2.60;;;2.17;;
16640;SDS011;8434;47.990;7.880;2024-03-07T03:26:08;3.63;;;2.37;;
16640;SDS011;8434;47.990;7.880;2024-03-07T03:28:55;2.57;;;2.37;;
16640;SDS011;8434;47.990;7.880;2024-03-07T03:31:40;3.63;;;2.60;;
16640;SDS011;8434;47.990;7.880;2024-03-07T03:34:25;3.57;;;3.00;;
16640;SDS011;8434;47.990;7.880;2024-03-07T03:37:11;2.60;;;2.17;;
16640;SDS011;8434;47.990;7.880;2024-03-07T03:39:57;3.77;;;2.20;;
16640;SDS011;8434;47.990;7.880;2024-03-07T03:42:43;2.67;;;2.10;;
16640;SDS011;8434;47.990;7.880;2024-03-07T03:45:30;4.80;;;2.20;;
16640;SDS011;8434;47.990;7.880;2024-03-07T03:48:18;2.50;;;1.97;;
16640;SDS011;8434;47.990;7.880;2024-03-07T03:51:03;2.67;;;1.80;;
16640;SDS011;8434;47.990;7.880;2024-03-07T03:53:48;3.40;;;2.53;;
16640;SDS011;8434;47.990;7.880;2024-03-07T03:56:35;2.63;;;1.90;;
16640;SDS011;8434;47.990;7.880;2024-03-07T03:59:23;4.43;;;2.80;;
16640;SDS011;8434;47.990;7.880;2024-03-07T04:02:10;3.27;;;2.30;;
16640;SDS011;8434;47.990;7.880;2024-03-07T04:04:55;4.43;;;2.47;;
16640;SDS011;8434;47.990;7.880;2024-03-07T04:07:41;3.43;;;2.53;;
16640;SDS011;8434;47.990;7.880;2024-03-07T04:10:26;4.27;;;2.90;;
16640;SDS011;8434;47.990;7.880;2024-03-07T04:13:12;5.10;;;2.73;;
16640;SDS011;8434;47.990;7.880;2024-03-07T04:15:58;5.47;;;3.13;;
16640;SDS011;8434;47.990;7.880;2024-03-07T04:18:45;4.63;;;2.80;;
16640;SDS011;8434;47.990;7.880;2024-03-07T04:21:30;3.47;;;2.57;;
16640;SDS011;8434;47.990;7.880;2024-03-07T04:24:16;4.43;;;2.67;;
16640;SDS011;8434;47.990;7.880;2024-03-07T04:27:02;4.83;;;3.10;;
16640;SDS011;8434;47.990;7.880;2024-03-07T04:29:47;5.40;;;3.10;;
16640;SDS011;8434;47.990;7.880;2024-03-07T04:32:33;3.93;;;2.90;;
16640;SDS011;8434;47.990;7.880;2024-03-07T04:35:20;5.97;;;3.23;;
16640;SDS011;8434;47.990;7.880;2024-03-07T04:38:06;3.50;;;2.60;;
16640;SDS011;8434;47.990;7.880;2024-03-07T04:40:55;4.07;;;2.40;;
16640;SDS011;8434;47.990;7.880;2024-03-07T04:43:40;6.03;;;3.33;;
16640;SDS011;8434;47.990;7.880;2024-03-07T04:46:26;3.43;;;2.37;;
16640;SDS011;8434;47.990;7.880;2024-03-07T04:49:11;3.83;;;2.93;;
16640;SDS011;8434;47.990;7.880;2024-03-07T04:51:59;5.13;;;2.77;;
16640;SDS011;8434;47.990;7.880;2024-03-07T04:54:44;3.57;;;2.60;;
16640;SDS011;8434;47.990;7.880;2024-03-07T04:57:29;4.23;;;3.00;;
16640;SDS011;8434;47.990;7.880;2024-03-07T05:00:15;4.93;;;2.60;;
16640;SDS011;8434;47.990;7.880;2024-03-07T05:03:03;4.30;;;2.83;;
16640;SDS011;8434;47.990;7.880;2024-03-07T05:05:48;3.30;;;2.77;;
16640;SDS011;8434;47.990;7.880;2024-03-07T05:08:38;5.13;;;3.37;;
16640;SDS011;8434;47.990;7.880;2024-03-07T05:11:23;6.13;;;2.67;;
16640;SDS011;8434;47.990;7.880;2024-03-07T05:14:09;4.50;;;2.90;;
16640;SDS011;8434;47.990;7.880;2024-03-07T05:16:56;4.33;;;2.90;;
16640;SDS011;8434;47.990;7.880;2024-03-07T05:19:49;8.87;;;3.50;;
16640;SDS011;8434;47.990;7.880;2024-03-07T05:22:36;5.30;;;3.57;;
16640;SDS011;8434;47.990;7.880;2024-03-07T05:25:26;4.93;;;3.27;;
16640;SDS011;8434;47.990;7.880;2024-03-07T05:28:11;5.30;;;3.27;;
16640;SDS011;8434;47.990;7.880;2024-03-07T05:30:56;5.83;;;3.17;;
16640;SDS011;8434;47.990;7.880;2024-03-07T05:33:42;5.47;;;3.20;;
16640;SDS011;8434;47.990;7.880;2024-03-07T05:36:27;5.63;;;3.43;;
16640;SDS011;8434;47.990;7.880;2024-03-07T05:39:13;5.80;;;3.53;;
16640;SDS011;8434;47.990;7.880;2024-03-07T05:42:00;7.93;;;4.00;;
16640;SDS011;8434;47.990;7.880;2024-03-07T05:44:45;6.73;;;3.57;;
16640;SDS011;8434;47.990;7.880;2024-03-07T05:47:31;6.60;;;3.80;;
16640;SDS011;8434;47.990;7.880;2024-03-07T05:50:16;8.50;;;5.10;;
16640;SDS011;8434;47.990;7.880;2024-03-07T05:53:02;8.73;;;4.93;;
16640;SDS011;8434;47.990;7.880;2024-03-07T05:55:48;8.87;;;5.70;;
16640;SDS011;8434;47.990;7.880;2024-03-07T05:58:35;9.00;;;5.67;;
16640;SDS011;8434;47.990;7.880;2024-03-07T06:01:20;9.67;;;6.03;;
16640;SDS011;8434;47.990;7.880;2024-03-07T06:04:06;10.20;;;6.40;;
16640;SDS011;8434;47.990;7.880;2024-03-07T06:06:52;10.97;;;6.87;;
16640;SDS011;8434;47.990;7.880;2024-03-07T06:09:38;8.60;;;5.50;;
16640;SDS011;8434;47.990;7.880;2024-03-07T06:12:23;12.03;;;6.80;;
16640;SDS011;8434;47.990;7.880;2024-03-07T06:15:10;8.23;;;5.47;;
16640;SDS011;8434;47.990;7.880;2024-03-07T06:17:56;8.67;;;5.60;;
16640;SDS011;8434;47.990;7.880;2024-03-07T06:20:42;9.90;;;5.77;;
16640;SDS011;8434;47.990;7.880;2024-03-07T06:23:27;10.63;;;6.17;;
16640;SDS011;8434;47.990;7.880;2024-03-07T06:26:14;11.13;;;5.87;;
16640;SDS011;8434;47.990;7.880;2024-03-07T06:29:10;10.70;;;6.33;;
16640;SDS011;8434;47.990;7.880;2024-03-07T06:31:57;11.40;;;6.13;;
16640;SDS011;8434;47.990;7.880;2024-03-07T06:34:44;7.57;;;4.33;;
16640;SDS011;8434;47.990;7.880;2024-03-07T06:37:29;10.83;;;5.87;;
16640;SDS011;8434;47.990;7.880;2024-03-07T06:40:15;9.77;;;4.97;;
16640;SDS011;8434;47.990;7.880;2024-03-07T06:43:05;9.53;;;5.97;;
16640;SDS011;8434;47.990;7.880;2024-03-07T06:45:51;11.53;;;6.00;;
16640;SDS011;8434;47.990;7.880;2024-03-07T06:48:38;13.33;;;5.80;;
16640;SDS011;8434;47.990;7.880;2024-03-07T06:51:24;12.20;;;6.07;;
16640;SDS011;8434;47.990;7.880;2024-03-07T06:54:09;9.57;;;5.40;;
16640;SDS011;8434;47.990;7.880;2024-03-07T06:56:55;11.13;;;6.37;;
16640;SDS011;8434;47.990;7.880;2024-03-07T06:59:40;9.80;;;5.20;;
16640;SDS011;8434;47.990;7.880;2024-03-07T07:02:26;9.43;;;5.57;;
16640;SDS011;8434;47.990;7.880;2024-03-07T07:05:13;9.73;;;6.17;;
16640;SDS011;8434;47.990;7.880;2024-03-07T07:08:02;11.17;;;6.10;;
16640;SDS011;8434;47.990;7.880;2024-03-07T07:10:48;10.53;;;6.10;;
16640;SDS011;8434;47.990;7.880;2024-03-07T07:13:34;10.57;;;5.70;;
16640;SDS011;8434;47.990;7.880;2024-03-07T07:16:20;9.37;;;5.57;;
16640;SDS011;8434;47.990;7.880;2024-03-07T07:19:05;9.80;;;5.77;;
16640;SDS011;8434;47.990;7.880;2024-03-07T07:21:52;11.20;;;6.67;;
16640;SDS011;8434;47.990;7.880;2024-03-07T07:24:42;9.33;;;5.90;;
16640;SDS011;8434;47.990;7.880;2024-03-07T07:27:28;10.73;;;6.60;;
16640;SDS011;8434;47.990;7.880;2024-03-07T07:30:14;9.00;;;5.93;;
16640;SDS011;8434;47.990;7.880;2024-03-07T07:32:59;10.53;;;7.20;;
16640;SDS011;8434;47.990;7.880;2024-03-07T07:35:45;13.23;;;7.63;;
16640;SDS011;8434;47.990;7.880;2024-03-07T07:38:32;13.07;;;7.10;;
16640;SDS011;8434;47.990;7.880;2024-03-07T07:41:17;11.97;;;6.90;;
16640;SDS011;8434;47.990;7.880;2024-03-07T07:44:02;16.57;;;8.30;;
16640;SDS011;8434;47.990;7.880;2024-03-07T07:46:48;14.37;;;7.60;;
16640;SDS011;8434;47.990;7.880;2024-03-07T07:49:33;16.13;;;8.40;;
16640;SDS011;8434;47.990;7.880;2024-03-07T07:52:20;16.40;;;8.97;;
16640;SDS011;8434;47.990;7.880;2024-03-07T07:55:07;16.83;;;9.17;;
16640;SDS011;8434;47.990;7.880;2024-03-07T07:57:58;16.73;;;8.90;;
16640;SDS011;8434;47.990;7.880;2024-03-07T08:00:44;16.90;;;9.73;;
16640;SDS011;8434;47.990;7.880;2024-03-07T08:03:32;16.97;;;9.97;;
16640;SDS011;8434;47.990;7.880;2024-03-07T08:06:18;20.97;;;11.23;;
16640;SDS011;8434;47.990;7.880;2024-03-07T08:09:03;18.00;;;11.20;;
16640;SDS011;8434;47.990;7.880;2024-03-07T08:11:52;20.70;;;11.13;;
16640;SDS011;8434;47.990;7.880;2024-03-07T08:14:37;17.57;;;11.10;;
16640;SDS011;8434;47.990;7.880;2024-03-07T08:17:23;17.97;;;10.77;;
16640;SDS011;8434;47.990;7.880;2024-03-07T08:20:10;17.60;;;10.60;;
16640;SDS011;8434;47.990;7.880;2024-03-07T08:22:57;14.73;;;9.10;;
16640;SDS011;8434;47.990;7.880;2024-03-07T08:25:43;16.77;;;8.97;;
16640;SDS011;8434;47.990;7.880;2024-03-07T08:28:30;16.57;;;9.70;;
16640;SDS011;8434;47.990;7.880;2024-03-07T08:31:15;16.77;;;10.03;;
16640;SDS011;8434;47.990;7.880;2024-03-07T08:34:00;13.93;;;8.93;;
16640;SDS011;8434;47.990;7.880;2024-03-07T08:36:46;17.07;;;9.27;;
16640;SDS011;8434;47.990;7.880;2024-03-07T08:39:31;16.40;;;10.50;;
16640;SDS011;8434;47.990;7.880;2024-03-07T08:42:17;14.80;;;8.67;;
16640;SDS011;8434;47.990;7.880;2024-03-07T08:45:04;15.87;;;8.40;;
16640;SDS011;8434;47.990;7.880;2024-03-07T08:47:51;14.20;;;8.87;;
16640;SDS011;8434;47.990;7.880;2024-03-07T08:50:38;14.90;;;9.80;;
16640;SDS011;8434;47.990;7.880;2024-03-07T08:53:23;14.53;;;9.33;;
16640;SDS011;8434;47.990;7.880;2024-03-07T08:56:08;16.80;;;10.80;;
16640;SDS011;8434;47.990;7.880;2024-03-07T08:58:54;19.50;;;10.07;;
16640;SDS011;8434;47.990;7.880;2024-03-07T09:01:41;17.33;;;10.13;;
16640;SDS011;8434;47.990;7.880;2024-03-07T09:04:27;17.00;;;10.23;;
16640;SDS011;8434;47.990;7.880;2024-03-07T09:07:14;15.03;;;8.37;;
16640;SDS011;8434;47.990;7.880;2024-03-07T09:10:01;14.70;;;9.47;;
16640;SDS011;8434;47.990;7.880;2024-03-07T09:12:49;16.53;;;9.27;;
16640;SDS011;8434;47.990;7.880;2024-03-07T09:15:35;13.97;;;9.63;;
16640;SDS011;8434;47.990;7.880;2024-03-07T09:18:22;16.27;;;9.93;;
16640;SDS011;8434;47.990;7.880;2024-03-07T09:21:09;20.00;;;12.57;;
16640;SDS011;8434;47.990;7.880;2024-03-07T09:23:54;23.27;;;13.53;;
16640;SDS011;8434;47.990;7.880;2024-03-07T09:26:40;21.83;;;12.37;;
16640;SDS011;8434;47.990;7.880;2024-03-07T09:29:25;23.80;;;14.10;;
16640;SDS011;8434;47.990;7.880;2024-03-07T09:32:11;22.93;;;14.40;;
16640;SDS011;8434;47.990;7.880;2024-03-07T09:34:58;22.60;;;13.60;;
16640;SDS011;8434;47.990;7.880;2024-03-07T09:37:44;23.57;;;14.23;;
16640;SDS011;8434;47.990;7.880;2024-03-07T09:40:30;22.47;;;14.00;;
16640;SDS011;8434;47.990;7.880;2024-03-07T09:43:15;23.53;;;15.03;;
16640;SDS011;8434;47.990;7.880;2024-03-07T09:46:02;22.60;;;13.40;;
16640;SDS011;8434;47.990;7.880;2024-03-07T09:48:48;24.07;;;14.30;;
16640;SDS011;8434;47.990;7.880;2024-03-07T09:51:36;21.53;;;13.53;;
16640;SDS011;8434;47.990;7.880;2024-03-07T09:54:22;21.77;;;13.73;;
16640;SDS011;8434;47.990;7.880;2024-03-07T09:57:08;23.13;;;15.23;;
16640;SDS011;8434;47.990;7.880;2024-03-07T09:59:54;26.60;;;16.33;;
16640;SDS011;8434;47.990;7.880;2024-03-07T10:02:39;30.57;;;16.47;;
16640;SDS011;8434;47.990;7.880;2024-03-07T10:05:26;28.90;;;18.50;;
16640;SDS011;8434;47.990;7.880;2024-03-07T10:08:13;32.57;;;17.97;;
16640;SDS011;8434;47.990;7.880;2024-03-07T10:10:58;25.20;;;16.13;;
16640;SDS011;8434;47.990;7.880;2024-03-07T10:13:44;34.50;;;18.93;;
16640;SDS011;8434;47.990;7.880;2024-03-07T10:16:33;33.27;;;16.70;;
16640;SDS011;8434;47.990;7.880;2024-03-07T10:19:18;26.23;;;17.00;;
16640;SDS011;8434;47.990;7.880;2024-03-07T10:22:04;23.83;;;15.23;;
16640;SDS011;8434;47.990;7.880;2024-03-07T10:24:52;25.60;;;16.80;;
16640;SDS011;8434;47.990;7.880;2024-03-07T10:27:38;24.90;;;16.03;;
16640;SDS011;8434;47.990;7.880;2024-03-07T10:30:24;24.83;;;16.70;;
16640;SDS011;8434;47.990;7.880;2024-03-07T10:33:10;29.07;;;17.57;;
16640;SDS011;8434;47.990;7.880;2024-03-07T10:35:56;28.07;;;15.93;;
16640;SDS011;8434;47.990;7.880;2024-03-07T10:38:42;26.50;;;17.80;;
16640;SDS011;8434;47.990;7.880;2024-03-07T10:41:29;27.33;;;17.00;;
16640;SDS011;8434;47.990;7.880;2024-03-07T10:44:20;29.50;;;18.80;;
16640;SDS011;8434;47.990;7.880;2024-03-07T10:47:06;32.53;;;19.80;;
16640;SDS011;8434;47.990;7.880;2024-03-07T10:49:58;32.70;;;17.80;;
16640;SDS011;8434;47.990;7.880;2024-03-07T10:52:47;30.47;;;17.60;;
16640;SDS011;8434;47.990;7.880;2024-03-07T10:55:34;27.50;;;16.47;;
16640;SDS011;8434;47.990;7.880;2024-03-07T10:58:26;35.27;;;17.67;;
16640;SDS011;8434;47.990;7.880;2024-03-07T11:01:13;29.97;;;18.00;;
16640;SDS011;8434;47.990;7.880;2024-03-07T11:04:00;34.80;;;20.10;;
16640;SDS011;8434;47.990;7.880;2024-03-07T11:06:49;29.40;;;17.03;;
16640;SDS011;8434;47.990;7.880;2024-03-07T11:09:34;28.57;;;16.40;;
16640;SDS011;8434;47.990;7.880;2024-03-07T11:12:20;33.10;;;17.47;;
16640;SDS011;8434;47.990;7.880;2024-03-07T11:15:08;32.80;;;17.87;;
16640;SDS011;8434;47.990;7.880;2024-03-07T11:17:58;30.67;;;17.60;;
16640;SDS011;8434;47.990;7.880;2024-03-07T11:20:44;28.03;;;17.97;;
16640;SDS011;8434;47.990;7.880;2024-03-07T11:23:31;33.63;;;19.53;;
16640;SDS011;8434;47.990;7.880;2024-03-07T11:26:22;34.30;;;19.93;;
16640;SDS011;8434;47.990;7.880;2024-03-07T11:32:08;33.40;;;18.07;;
16640;SDS011;8434;47.990;7.880;2024-03-07T11:34:55;29.50;;;18.00;;
16640;SDS011;8434;47.990;7.880;2024-03-07T11:37:41;32.80;;;18.23;;
16640;SDS011;8434;47.990;7.880;2024-03-07T11:40:42;31.97;;;19.13;;
16640;SDS011;8434;47.990;7.880;2024-03-07T11:43:28;30.50;;;17.30;;
16640;SDS011;8434;47.990;7.880;2024-03-07T11:46:13;29.03;;;16.73;;
16640;SDS011;8434;47.990;7.880;2024-03-07T11:49:02;28.70;;;16.43;;
16640;SDS011;8434;47.990;7.880;2024-03-07T11:51:47;30.50;;;17.57;;
16640;SDS011;8434;47.990;7.880;2024-03-07T11:54:35;29.10;;;17.80;;
16640;SDS011;8434;47.990;7.880;2024-03-07T11:57:20;31.13;;;18.37;;
16640;SDS011;8434;47.990;7.880;2024-03-07T12:00:10;28.30;;;16.43;;
16640;SDS011;8434;47.990;7.880;2024-03-07T12:02:59;28.53;;;16.07;;
16640;SDS011;8434;47.990;7.880;2024-03-07T12:05:45;28.63;;;17.60;;
16640;SDS011;8434;47.990;7.880;2024-03-07T12:08:31;30.27;;;17.47;;
16640;SDS011;8434;47.990;7.880;2024-03-07T12:11:17;26.20;;;17.17;;
16640;SDS011;8434;47.990;7.880;2024-03-07T12:14:02;28.30;;;17.07;;
16640;SDS011;8434;47.990;7.880;2024-03-07T12:16:49;30.93;;;18.53;;
16640;SDS011;8434;47.990;7.880;2024-03-07T12:19:36;27.70;;;15.93;;
16640;SDS011;8434;47.990;7.880;2024-03-07T12:22:24;27.33;;;16.77;;
16640;SDS011;8434;47.990;7.880;2024-03-07T12:25:10;28.43;;;16.33;;
16640;SDS011;8434;47.990;7.880;2024-03-07T12:28:04;26.53;;;17.60;;
16640;SDS011;8434;47.990;7.880;2024-03-07T12:30:51;25.03;;;16.37;;
16640;SDS011;8434;47.990;7.880;2024-03-07T12:33:36;30.40;;;18.23;;
16640;SDS011;8434;47.990;7.880;2024-03-07T12:36:22;26.37;;;15.63;;
16640;SDS011;8434;47.990;7.880;2024-03-07T12:39:23;25.80;;;15.30;;
16640;SDS011;8434;47.990;7.880;2024-03-07T12:42:16;24.40;;;14.13;;
16640;SDS011;8434;47.990;7.880;2024-03-07T12:45:05;26.93;;;15.80;;
16640;SDS011;8434;47.990;7.880;2024-03-07T12:47:51;25.93;;;15.67;;
16640;SDS011;8434;47.990;7.880;2024-03-07T12:50:38;26.07;;;15.90;;
16640;SDS011;8434;47.990;7.880;2024-03-07T12:53:24;27.83;;;16.13;;
16640;SDS011;8434;47.990;7.880;2024-03-07T12:56:12;27.20;;;17.00;;
16640;SDS011;8434;47.990;7.880;2024-03-07T12:59:00;25.33;;;15.80;;
16640;SDS011;8434;47.990;7.880;2024-03-07T13:01:45;25.90;;;15.87;;
16640;SDS011;8434;47.990;7.880;2024-03-07T13:04:31;28.97;;;17.23;;
16640;SDS011;8434;47.990;7.880;2024-03-07T13:07:17;28.53;;;16.27;;
16640;SDS011;8434;47.990;7.880;2024-03-07T13:10:02;30.37;;;17.57;;
16640;SDS011;8434;47.990;7.880;2024-03-07T13:12:49;30.70;;;17.50;;
16640;SDS011;8434;47.990;7.880;2024-03-07T13:15:36;28.97;;;16.77;;
16640;SDS011;8434;47.990;7.880;2024-03-07T13:18:23;24.20;;;15.03;;
16640;SDS011;8434;47.990;7.880;2024-03-07T13:21:08;28.57;;;17.63;;
16640;SDS011;8434;47.990;7.880;2024-03-07T13:23:54;25.27;;;15.77;;
16640;SDS011;8434;47.990;7.880;2024-03-07T13:26:44;28.63;;;17.30;;
16640;SDS011;8434;47.990;7.880;2024-03-07T13:29:33;32.07;;;19.00;;
16640;SDS011;8434;47.990;7.880;2024-03-07T13:32:19;30.20;;;17.13;;
16640;SDS011;8434;47.990;7.880;2024-03-07T13:35:05;31.97;;;18.27;;
16640;SDS011;8434;47.990;7.880;2024-03-07T13:37:55;28.40;;;17.83;;
16640;SDS011;8434;47.990;7.880;2024-03-07T13:40:41;27.07;;;16.47;;
16640;SDS011;8434;47.990;7.880;2024-03-07T13:43:26;28.83;;;17.67;;
16640;SDS011;8434;47.990;7.880;2024-03-07T13:46:13;26.37;;;16.77;;
16640;SDS011;8434;47.990;7.880;2024-03-07T13:49:02;29.07;;;18.27;;
16640;SDS011;8434;47.990;7.880;2024-03-07T13:51:57;30.80;;;18.07;;
16640;SDS011;8434;47.990;7.880;2024-03-07T13:54:54;33.23;;;18.73;;
16640;SDS011;8434;47.990;7.880;2024-03-07T13:57:41;30.73;;;18.27;;
16640;SDS011;8434;47.990;7.880;2024-03-07T14:00:32;30.73;;;17.77;;
16640;SDS011;8434;47.990;7.880;2024-03-07T14:03:29;28.70;;;17.50;;
16640;SDS011;8434;47.990;7.880;2024-03-07T14:06:21;30.10;;;17.77;;
16640;SDS011;8434;47.990;7.880;2024-03-07T14:09:17;32.37;;;18.23;;
16640;SDS011;8434;47.990;7.880;2024-03-07T14:15:38;28.97;;;16.80;;
16640;SDS011;8434;47.990;7.880;2024-03-07T14:24:53;29.83;;;16.30;;
16640;SDS011;8434;47.990;7.880;2024-03-07T14:27:41;28.60;;;16.37;;
16640;SDS011;8434;47.990;7.880;2024-03-07T14:30:40;27.80;;;16.23;;
16640;SDS011;8434;47.990;7.880;2024-03-07T14:33:29;25.03;;;15.67;;
16640;SDS011;8434;47.990;7.880;2024-03-07T14:36:17;27.47;;;15.67;;
16640;SDS011;8434;47.990;7.880;2024-03-07T14:39:03;26.37;;;14.80;;
16640;SDS011;8434;47.990;7.880;2024-03-07T14:41:50;27.27;;;16.13;;
16640;SDS011;8434;47.990;7.880;2024-03-07T14:44:37;25.63;;;15.80;;
16640;SDS011;8434;47.990;7.880;2024-03-07T14:47:23;27.57;;;16.17;;
16640;SDS011;8434;47.990;7.880;2024-03-07T14:50:10;27.33;;;15.30;;
16640;SDS011;8434;47.990;7.880;2024-03-07T14:52:56;25.43;;;14.90;;
16640;SDS011;8434;47.990;7.880;2024-03-07T14:55:42;23.50;;;13.53;;
16640;SDS011;8434;47.990;7.880;2024-03-07T14:58:28;23.10;;;14.33;;
16640;SDS011;8434;47.990;7.880;2024-03-07T15:01:13;28.00;;;15.37;;
16640;SDS011;8434;47.990;7.880;2024-03-07T15:04:00;25.17;;;15.70;;
16640;SDS011;8434;47.990;7.880;2024-03-07T15:06:51;26.43;;;15.37;;
16640;SDS011;8434;47.990;7.880;2024-03-07T15:09:45;22.50;;;15.00;;
16640;SDS011;8434;47.990;7.880;2024-03-07T15:12:30;25.37;;;14.90;;
16640;SDS011;8434;47.990;7.880;2024-03-07T15:15:17;28.43;;;15.40;;
16640;SDS011;8434;47.990;7.880;2024-03-07T15:18:04;24.70;;;15.17;;
16640;SDS011;8434;47.990;7.880;2024-03-07T15:20:49;24.00;;;14.20;;
16640;SDS011;8434;47.990;7.880;2024-03-07T15:23:34;25.87;;;15.57;;
16640;SDS011;8434;47.990;7.880;2024-03-07T15:26:20;23.33;;;14.37;;
16640;SDS011;8434;47.990;7.880;2024-03-07T15:29:07;26.30;;;14.77;;
16640;SDS011;8434;47.990;7.880;2024-03-07T15:31:54;31.10;;;15.83;;
16640;SDS011;8434;47.990;7.880;2024-03-07T15:34:40;23.97;;;14.83;;
16640;SDS011;8434;47.990;7.880;2024-03-07T15:37:25;27.70;;;14.33;;
16640;SDS011;8434;47.990;7.880;2024-03-07T15:40:11;25.50;;;15.03;;
16640;SDS011;8434;47.990;7.880;2024-03-07T15:42:59;28.37;;;16.23;;
16640;SDS011;8434;47.990;7.880;2024-03-07T15:45:45;25.77;;;13.83;;
16640;SDS011;8434;47.990;7.880;2024-03-07T15:48:36;23.43;;;15.37;;
16640;SDS011;8434;47.990;7.880;2024-03-07T15:51:21;25.47;;;15.83;;
16640;SDS011;8434;47.990;7.880;2024-03-07T15:54:07;24.87;;;15.10;;
16640;SDS011;8434;47.990;7.880;2024-03-07T15:56:53;27.63;;;15.50;;
16640;SDS011;8434;47.990;7.880;2024-03-07T15:59:41;22.60;;;14.27;;
16640;SDS011;8434;47.990;7.880;2024-03-07T16:02:26;24.90;;;14.00;;
16640;SDS011;8434;47.990;7.880;2024-03-07T16:05:15;25.03;;;14.67;;
16640;SDS011;8434;47.990;7.880;2024-03-07T16:08:02;26.47;;;15.83;;
16640;SDS011;8434;47.990;7.880;2024-03-07T16:10:50;26.00;;;14.90;;
16640;SDS011;8434;47.990;7.880;2024-03-07T16:13:36;22.80;;;12.30;;
16640;SDS011;8434;47.990;7.880;2024-03-07T16:16:21;16.03;;;10.00;;
16640;SDS011;8434;47.990;7.880;2024-03-07T16:19:07;14.27;;;8.80;;
16640;SDS011;8434;47.990;7.880;2024-03-07T16:21:56;12.80;;;8.53;;
16640;SDS011;8434;47.990;7.880;2024-03-07T16:24:43;17.90;;;10.53;;
16640;SDS011;8434;47.990;7.880;2024-03-07T16:27:28;16.13;;;9.33;;
16640;SDS011;8434;47.990;7.880;2024-03-07T16:30:15;15.93;;;10.57;;
16640;SDS011;8434;47.990;7.880;2024-03-07T16:33:02;19.47;;;9.40;;
16640;SDS011;8434;47.990;7.880;2024-03-07T16:35:48;14.20;;;8.43;;
16640;SDS011;8434;47.990;7.880;2024-03-07T16:38:34;15.33;;;9.43;;
16640;SDS011;8434;47.990;7.880;2024-03-07T16:41:20;18.03;;;10.17;;
16640;SDS011;8434;47.990;7.880;2024-03-07T16:44:05;16.13;;;9.63;;
16640;SDS011;8434;47.990;7.880;2024-03-07T16:46:52;15.00;;;9.17;;
16640;SDS011;8434;47.990;7.880;2024-03-07T16:49:38;23.80;;;9.50;;
16640;SDS011;8434;47.990;7.880;2024-03-07T16:52:23;16.73;;;9.50;;
16640;SDS011;8434;47.990;7.880;2024-03-07T16:55:14;14.93;;;9.07;;
16640;SDS011;8434;47.990;7.880;2024-03-07T16:58:02;17.13;;;9.43;;